createdAt,value
2023-02-18T00:01:48.530Z,5.86
2023-02-18T00:06:54.105Z,5.81
2023-02-18T00:11:59.694Z,5.76
2023-02-18T00:17:05.829Z,5.76
2023-02-18T00:22:11.741Z,5.82
2023-02-18T00:27:17.676Z,5.92
2023-02-18T00:32:23.432Z,6.04
2023-02-18T00:37:29.104Z,6.11
2023-02-18T00:42:35.336Z,6.13
2023-02-18T00:47:41.050Z,6.12
2023-02-18T00:52:47.065Z,6.11
2023-02-18T00:57:52.801Z,6.07
2023-02-18T01:02:58.436Z,6.02
2023-02-18T01:08:05.661Z,5.93
2023-02-18T01:13:12.080Z,5.85
2023-02-18T01:18:18.954Z,5.81
2023-02-18T01:23:25.288Z,5.79
2023-02-18T01:28:30.988Z,5.75
2023-02-18T01:33:36.758Z,5.68
2023-02-18T01:38:42.600Z,5.58
2023-02-18T01:43:48.303Z,5.58
2023-02-18T01:48:58.695Z,5.62
2023-02-18T01:54:09.622Z,5.69
2023-02-18T01:59:18.240Z,5.74
2023-02-18T02:04:24.279Z,5.78
2023-02-18T02:09:32.172Z,5.81
2023-02-18T02:14:51.044Z,5.84
2023-02-18T02:20:36.371Z,5.83
2023-02-18T02:26:06.527Z,5.81
2023-02-18T02:31:39.922Z,5.78
2023-02-18T02:36:50.611Z,5.75
2023-02-18T02:42:08.872Z,5.72
2023-02-18T02:47:25.827Z,5.69
2023-02-18T02:52:37.673Z,5.66
2023-02-18T02:57:52.278Z,5.66
2023-02-18T03:03:25.069Z,5.67
2023-02-18T03:08:47.201Z,5.66
2023-02-18T03:14:02.869Z,5.77
2023-02-18T03:19:20.246Z,5.91
2023-02-18T03:24:30.636Z,5.98
2023-02-18T03:29:37.050Z,5.98
2023-02-18T03:34:49.011Z,5.95
2023-02-18T03:39:59.896Z,5.90
2023-02-18T03:45:07.468Z,5.88
2023-02-18T03:50:13.655Z,5.87
2023-02-18T03:55:19.662Z,5.87
2023-02-18T04:00:25.381Z,5.87
2023-02-18T04:05:31.080Z,5.86
2023-02-18T04:10:36.920Z,5.83
2023-02-18T04:15:42.804Z,5.78
2023-02-18T04:20:48.293Z,5.71
2023-02-18T04:25:54.360Z,5.67
2023-02-18T04:31:00.133Z,5.65
2023-02-18T04:36:07.332Z,5.63
2023-02-18T04:41:13.385Z,5.60
2023-02-18T04:46:19.328Z,5.54
2023-02-18T04:51:25.024Z,5.52
2023-02-18T04:56:30.780Z,5.53
2023-02-18T05:01:36.704Z,5.52
2023-02-18T05:06:43.155Z,5.52
2023-02-18T05:11:48.937Z,5.51
2023-02-18T05:16:54.644Z,5.49
2023-02-18T05:22:00.276Z,5.48
2023-02-18T05:27:06.083Z,5.46
2023-02-18T05:32:12.160Z,5.42
2023-02-18T05:37:18.790Z,5.39
2023-02-18T05:42:24.360Z,5.37
2023-02-18T05:47:29.935Z,5.33
2023-02-18T05:52:35.510Z,5.32
2023-02-18T05:57:41.291Z,5.31
2023-02-18T06:02:47.044Z,5.30
2023-02-18T06:07:54.748Z,5.29
2023-02-18T06:13:02.580Z,5.30
2023-02-18T06:18:08.959Z,5.31
2023-02-18T06:23:15.074Z,5.34
2023-02-18T06:28:20.631Z,5.37
2023-02-18T06:33:26.251Z,5.40
2023-02-18T06:38:31.814Z,5.43
2023-02-18T06:43:37.855Z,5.46
2023-02-18T06:48:43.537Z,5.50
2023-02-18T06:53:49.345Z,5.53
2023-02-18T06:58:54.942Z,5.59
2023-02-18T07:04:00.559Z,5.64
2023-02-18T07:09:06.473Z,5.68
2023-02-18T07:14:12.223Z,5.84
2023-02-18T07:19:17.897Z,6.19
2023-02-18T07:24:23.434Z,6.52
2023-02-18T07:29:29.120Z,6.67
2023-02-18T07:34:34.900Z,6.68
2023-02-18T07:39:42.766Z,6.79
2023-02-18T07:44:48.729Z,6.80
2023-02-18T07:49:54.296Z,6.80
2023-02-18T07:54:59.954Z,6.82
2023-02-18T08:00:06.868Z,6.85
2023-02-18T08:05:18.420Z,6.94
2023-02-18T08:10:24.271Z,7.21
2023-02-18T08:15:30.050Z,7.25
2023-02-18T08:20:39.017Z,7.25
2023-02-18T08:25:50.219Z,7.28
2023-02-18T08:30:54.769Z,7.30
2023-02-18T08:36:00.430Z,7.25
2023-02-18T08:41:08.453Z,7.23
2023-02-18T08:46:24.859Z,7.27
2023-02-18T08:51:39.827Z,7.32
2023-02-18T08:56:45.499Z,7.37
2023-02-18T09:01:51.367Z,7.35
2023-02-18T09:06:57.310Z,7.54
2023-02-18T09:12:03.541Z,7.68
2023-02-18T09:17:09.809Z,7.78
2023-02-18T09:22:15.921Z,8.04
2023-02-18T09:27:22.737Z,8.34
2023-02-18T09:32:34.672Z,8.66
2023-02-18T09:37:41.830Z,8.66
2023-02-18T09:42:47.483Z,8.55
2023-02-18T09:47:53.629Z,8.35
2023-02-18T09:53:00.658Z,8.22
2023-02-18T09:58:13.370Z,8.19
2023-02-18T10:03:21.864Z,8.06
2023-02-18T10:08:30.131Z,8.08
2023-02-18T10:13:35.997Z,8.60
2023-02-18T10:18:45.453Z,8.61
2023-02-18T10:23:59.118Z,8.61
2023-02-18T10:29:12.052Z,8.52
2023-02-18T10:34:24.680Z,8.43
2023-02-18T10:39:44.930Z,8.49
2023-02-18T10:45:03.664Z,8.77
2023-02-18T10:50:37.933Z,9.29
2023-02-18T10:55:46.035Z,9.56
2023-02-18T11:00:52.385Z,9.55
2023-02-18T11:05:59.064Z,9.27
2023-02-18T11:11:16.058Z,9.23
2023-02-18T11:16:24.391Z,9.11
2023-02-18T11:21:35.261Z,8.97
2023-02-18T11:26:41.628Z,8.85
2023-02-18T11:31:49.940Z,8.69
2023-02-18T11:36:57.395Z,8.61
2023-02-18T11:42:05.491Z,8.61
2023-02-18T11:47:23.439Z,8.83
2023-02-18T11:52:33.946Z,8.95
2023-02-18T11:57:43.955Z,9.33
2023-02-18T12:02:51.319Z,9.53
2023-02-18T12:08:05.211Z,9.22
2023-02-18T12:13:25.367Z,8.90
2023-02-18T12:18:45.092Z,8.93
2023-02-18T12:24:04.307Z,8.85
2023-02-18T12:29:33.676Z,8.73
2023-02-18T12:35:00.823Z,8.71
2023-02-18T12:40:22.276Z,8.60
2023-02-18T12:45:56.548Z,8.51
2023-02-18T12:51:17.372Z,8.54
2023-02-18T12:56:50.279Z,8.60
2023-02-18T13:02:12.051Z,8.62
2023-02-18T13:07:38.129Z,8.63
2023-02-18T13:12:51.918Z,8.52
2023-02-18T13:18:01.495Z,8.57
2023-02-18T13:23:14.826Z,8.68
2023-02-18T13:28:27.216Z,8.60
2023-02-18T13:33:41.408Z,8.43
2023-02-18T13:38:58.565Z,8.28
2023-02-18T13:44:09.523Z,8.18
2023-02-18T13:49:18.397Z,8.02
2023-02-18T13:54:28.945Z,7.79
2023-02-18T13:59:38.596Z,7.61
2023-02-18T14:04:53.385Z,7.54
2023-02-18T14:10:00.371Z,7.48
2023-02-18T14:15:55.429Z,7.36
2023-02-18T14:21:22.433Z,7.20
2023-02-18T14:26:32.905Z,7.01
2023-02-18T14:31:46.467Z,6.88
2023-02-18T14:37:05.306Z,6.75
2023-02-18T14:42:24.955Z,6.64
2023-02-18T14:47:46.247Z,6.58
2023-02-18T14:52:56.551Z,6.50
2023-02-18T14:58:05.944Z,6.40
2023-02-18T15:03:16.168Z,6.30
2023-02-18T15:08:23.674Z,6.23
2023-02-18T15:13:31.967Z,6.09
2023-02-18T15:18:41.304Z,5.81
2023-02-18T15:23:48.664Z,5.50
2023-02-18T15:29:01.188Z,5.20
2023-02-18T15:34:27.233Z,4.97
2023-02-18T15:39:33.170Z,4.80
2023-02-18T15:44:45.315Z,4.69
2023-02-18T15:49:54.648Z,4.65
2023-02-18T15:55:05.317Z,4.57
2023-02-18T16:00:20.052Z,4.47
2023-02-18T16:05:30.340Z,4.39
2023-02-18T16:10:50.060Z,4.35
2023-02-18T16:15:55.817Z,4.28
2023-02-18T16:21:07.266Z,4.20
2023-02-18T16:26:22.466Z,4.17
2023-02-18T16:31:28.329Z,4.12
2023-02-18T16:36:34.281Z,4.04
2023-02-18T16:41:39.852Z,3.99
2023-02-18T16:46:45.657Z,3.94
2023-02-18T16:51:51.275Z,3.85
2023-02-18T16:56:57.086Z,3.74
2023-02-18T17:02:03.343Z,3.68
2023-02-18T17:07:11.228Z,3.64
2023-02-18T17:12:16.832Z,3.61
2023-02-18T17:17:23.631Z,3.65
2023-02-18T17:22:29.218Z,3.65
2023-02-18T17:27:34.821Z,3.62
2023-02-18T17:32:40.574Z,3.59
2023-02-18T17:37:46.207Z,3.59
2023-02-18T17:42:53.727Z,3.56
2023-02-18T17:48:00.812Z,3.53
2023-02-18T17:53:07.682Z,3.57
2023-02-18T17:58:14.850Z,3.58
2023-02-18T18:03:21.477Z,3.55
2023-02-18T18:08:27.297Z,3.53
2023-02-18T18:13:33.647Z,3.54
2023-02-18T18:18:39.381Z,3.56
2023-02-18T18:23:45.032Z,3.53
2023-02-18T18:28:51.036Z,3.51
2023-02-18T18:33:57.277Z,3.55
2023-02-18T18:39:02.897Z,3.58
2023-02-18T18:44:09.664Z,3.53
2023-02-18T18:49:15.200Z,3.50
2023-02-18T18:54:20.862Z,3.43
2023-02-18T18:59:26.480Z,3.32
2023-02-18T19:04:32.253Z,3.27
2023-02-18T19:09:37.895Z,3.28
2023-02-18T19:14:43.609Z,3.31
2023-02-18T19:19:49.202Z,3.34
2023-02-18T19:24:54.752Z,3.35
2023-02-18T19:30:00.335Z,3.32
2023-02-18T19:35:06.513Z,3.24
2023-02-18T19:40:15.256Z,3.12
2023-02-18T19:45:22.487Z,3.07
2023-02-18T19:50:32.998Z,3.05
2023-02-18T19:55:38.668Z,3.05
2023-02-18T20:00:44.555Z,3.12
2023-02-18T20:05:50.245Z,3.21
2023-02-18T20:10:59.437Z,3.24
2023-02-18T20:16:07.778Z,3.29
2023-02-18T20:21:15.935Z,3.32
2023-02-18T20:26:23.747Z,3.32
2023-02-18T20:31:29.762Z,3.31
2023-02-18T20:36:35.902Z,3.33
2023-02-18T20:41:42.167Z,3.37
2023-02-18T20:46:51.648Z,3.40
2023-02-18T20:52:20.983Z,3.41
2023-02-18T20:57:26.976Z,3.43
2023-02-18T21:02:56.128Z,3.45
2023-02-18T21:08:01.834Z,3.44
2023-02-18T21:13:07.467Z,3.44
2023-02-18T21:18:13.158Z,3.45
2023-02-18T21:23:18.921Z,3.45
2023-02-18T21:28:24.600Z,3.43
2023-02-18T21:33:31.289Z,3.41
2023-02-18T21:38:36.921Z,3.26
2023-02-18T21:43:46.276Z,3.01
2023-02-18T21:49:10.864Z,2.82
2023-02-18T21:54:18.584Z,2.66
2023-02-18T21:59:27.184Z,2.49
2023-02-18T22:04:36.132Z,2.34
2023-02-18T22:09:42.078Z,2.24
2023-02-18T22:14:48.023Z,2.19
2023-02-18T22:19:53.602Z,2.20
2023-02-18T22:24:59.400Z,2.25
2023-02-18T22:30:06.343Z,2.34
2023-02-18T22:35:11.996Z,2.46
2023-02-18T22:40:18.169Z,2.53
2023-02-18T22:45:23.749Z,2.55
2023-02-18T22:50:29.414Z,2.59
2023-02-18T22:55:35.062Z,2.62
2023-02-18T23:00:40.633Z,2.60
2023-02-18T23:05:46.573Z,2.59
2023-02-18T23:11:03.170Z,2.57
2023-02-18T23:16:13.461Z,2.52
2023-02-18T23:21:21.226Z,2.45
2023-02-18T23:26:27.260Z,2.43
2023-02-18T23:31:37.863Z,2.45
2023-02-18T23:36:44.702Z,2.43
2023-02-18T23:41:51.017Z,2.39
2023-02-18T23:47:14.145Z,2.38
2023-02-18T23:52:19.815Z,2.36
2023-02-18T23:57:25.453Z,2.30
